createdAt,value
2018-07-30T00:02:30.708Z,95663.46
2018-07-30T00:04:59.846Z,95664.11
2018-07-30T00:07:28.972Z,95662.28
2018-07-30T00:09:58.030Z,95667.07
2018-07-30T00:12:27.185Z,95666.89
2018-07-30T00:14:56.313Z,95667.30
2018-07-30T00:17:25.457Z,95668.88
2018-07-30T00:19:54.645Z,95672.19
2018-07-30T00:22:23.941Z,95668.95
2018-07-30T00:24:59.876Z,95670.91
2018-07-30T00:27:29.101Z,95673.13
2018-07-30T00:29:58.228Z,95674.52
2018-07-30T00:32:27.344Z,95676.62
2018-07-30T00:34:56.459Z,95674.17
2018-07-30T00:37:25.642Z,95671.53
2018-07-30T00:39:54.914Z,95682.92
2018-07-30T00:42:24.062Z,95680.48
2018-07-30T00:44:53.190Z,95674.02
2018-07-30T00:47:22.344Z,95680.97
2018-07-30T00:49:51.540Z,95683.30
2018-07-30T00:52:20.605Z,95683.11
2018-07-30T00:54:49.802Z,95679.09
2018-07-30T00:57:18.966Z,95681.34
2018-07-30T00:59:48.113Z,95683.78
2018-07-30T01:02:17.223Z,95687.98
2018-07-30T01:04:46.325Z,95685.55
2018-07-30T01:07:15.563Z,95694.48
2018-07-30T01:09:44.770Z,95689.88
2018-07-30T01:12:13.917Z,95694.72
2018-07-30T01:14:43.069Z,95693.91
2018-07-30T01:17:12.187Z,95691.47
2018-07-30T01:19:41.283Z,95686.19
2018-07-30T01:22:10.465Z,95687.34
2018-07-30T01:24:39.629Z,95686.40
2018-07-30T01:27:08.920Z,95687.34
2018-07-30T01:29:38.040Z,95692.89
2018-07-30T01:32:07.501Z,95690.17
2018-07-30T01:34:36.661Z,95691.69
2018-07-30T01:37:05.822Z,95692.47
2018-07-30T01:39:35.015Z,95685.67
2018-07-30T01:42:04.240Z,95687.63
2018-07-30T01:44:33.362Z,95684.64
2018-07-30T01:47:02.724Z,95683.47
2018-07-30T01:49:31.889Z,95679.78
2018-07-30T01:52:01.077Z,95682.22
2018-07-30T01:54:30.179Z,95679.34
2018-07-30T01:56:59.313Z,95680.04
2018-07-30T01:59:28.446Z,95685.33
2018-07-30T02:01:57.772Z,95685.59
2018-07-30T02:04:26.904Z,95687.78
2018-07-30T02:06:56.100Z,95693.77
2018-07-30T02:09:25.164Z,95691.12
2018-07-30T02:11:54.276Z,95684.53
2018-07-30T02:14:23.389Z,95690.42
2018-07-30T02:16:52.508Z,95690.89
2018-07-30T02:19:22.576Z,95685.70
2018-07-30T02:21:51.660Z,95686.76
2018-07-30T02:24:20.822Z,95685.36
2018-07-30T02:26:50.020Z,95689.40
2018-07-30T02:29:19.183Z,95689.40
2018-07-30T02:31:48.328Z,95690.20
2018-07-30T02:34:17.506Z,95690.00
2018-07-30T02:36:46.984Z,95693.89
2018-07-30T02:39:16.120Z,95691.38
2018-07-30T02:41:45.296Z,95697.61
2018-07-30T02:44:14.449Z,95692.20
2018-07-30T02:46:43.602Z,95694.17
2018-07-30T02:49:12.702Z,95692.91
2018-07-30T02:51:42.152Z,95697.76
2018-07-30T02:54:11.313Z,95702.36
2018-07-30T02:56:40.538Z,95702.58
2018-07-30T02:59:10.142Z,95701.33
2018-07-30T03:01:39.245Z,95704.77
2018-07-30T03:04:08.391Z,95705.00
2018-07-30T03:06:38.562Z,95706.38
2018-07-30T03:09:08.934Z,95699.58
2018-07-30T03:11:38.456Z,95701.77
2018-07-30T03:14:07.841Z,95699.91
2018-07-30T03:16:37.013Z,95700.14
2018-07-30T03:19:06.334Z,95699.81
2018-07-30T03:21:35.425Z,95703.52
2018-07-30T03:24:04.836Z,95711.03
2018-07-30T03:26:34.060Z,95706.84
2018-07-30T03:29:03.283Z,95713.78
2018-07-30T03:31:32.436Z,95716.55
2018-07-30T03:34:01.556Z,95720.80
2018-07-30T03:36:30.705Z,95719.33
2018-07-30T03:38:59.910Z,95716.09
2018-07-30T03:41:29.001Z,95713.77
2018-07-30T03:43:58.187Z,95718.97
2018-07-30T03:46:27.305Z,95722.91
2018-07-30T03:48:56.538Z,95725.20
2018-07-30T03:51:25.641Z,95729.14
2018-07-30T03:53:54.841Z,95732.28
2018-07-30T03:56:24.099Z,95726.83
2018-07-30T03:58:53.325Z,95734.80
2018-07-30T04:01:22.661Z,95731.02
2018-07-30T04:03:51.856Z,95730.09
2018-07-30T04:06:21.065Z,95731.93
2018-07-30T04:08:50.359Z,95733.55
2018-07-30T04:11:19.445Z,95732.28
2018-07-30T04:13:48.624Z,95730.08
2018-07-30T04:16:17.846Z,95736.89
2018-07-30T04:18:47.314Z,95731.11
2018-07-30T04:21:16.546Z,95729.92
2018-07-30T04:23:45.642Z,95729.97
2018-07-30T04:26:15.636Z,95739.67
2018-07-30T04:28:44.768Z,95736.97
2018-07-30T04:31:14.063Z,95736.52
2018-07-30T04:33:43.275Z,95733.43
2018-07-30T04:36:12.406Z,95738.41
2018-07-30T04:38:41.704Z,95737.58
2018-07-30T04:41:10.916Z,95736.20
2018-07-30T04:43:40.047Z,95735.05
2018-07-30T04:46:09.199Z,95739.53
2018-07-30T04:48:38.368Z,95736.43
2018-07-30T04:51:07.486Z,95736.90
2018-07-30T04:53:36.724Z,95736.20
2018-07-30T04:56:05.834Z,95735.72
2018-07-30T04:58:35.008Z,95732.04
2018-07-30T05:01:04.184Z,95730.40
2018-07-30T05:03:33.272Z,95735.50
2018-07-30T05:06:02.402Z,95737.68
2018-07-30T05:08:31.522Z,95739.30
2018-07-30T05:11:00.688Z,95742.59
2018-07-30T05:13:29.794Z,95736.08
2018-07-30T05:15:58.946Z,95749.00
2018-07-30T05:18:28.146Z,95747.52
2018-07-30T05:20:57.344Z,95751.88
2018-07-30T05:23:26.525Z,95747.91
2018-07-30T05:25:55.678Z,95749.19
2018-07-30T05:28:24.879Z,95752.69
2018-07-30T05:30:53.990Z,95753.41
2018-07-30T05:33:23.137Z,95749.87
2018-07-30T05:35:52.241Z,95754.15
2018-07-30T05:38:21.422Z,95751.32
2018-07-30T05:40:50.913Z,95749.01
2018-07-30T05:43:20.134Z,95748.81
2018-07-30T05:45:49.273Z,95753.98
2018-07-30T05:48:18.509Z,95757.25
2018-07-30T05:50:47.617Z,95758.00
2018-07-30T05:53:16.947Z,95757.44
2018-07-30T05:55:46.259Z,95755.33
2018-07-30T05:58:15.391Z,95753.53
2018-07-30T06:00:44.513Z,95756.33
2018-07-30T06:03:13.725Z,95750.47
2018-07-30T06:05:43.043Z,95762.23
2018-07-30T06:08:12.365Z,95764.48
2018-07-30T06:10:41.525Z,95771.17
2018-07-30T06:13:10.692Z,95771.59
2018-07-30T06:15:39.872Z,95769.55
2018-07-30T06:18:09.100Z,95769.94
2018-07-30T06:20:38.250Z,95773.84
2018-07-30T06:23:07.356Z,95778.84
2018-07-30T06:25:36.510Z,95780.23
2018-07-30T06:28:06.260Z,95782.28
2018-07-30T06:30:35.412Z,95793.66
2018-07-30T06:33:04.552Z,95790.43
2018-07-30T06:35:33.708Z,95791.59
2018-07-30T06:38:03.034Z,95791.95
2018-07-30T06:40:32.152Z,95800.48
2018-07-30T06:43:01.590Z,95804.20
2018-07-30T06:45:33.564Z,95804.56
2018-07-30T06:48:02.779Z,95808.88
2018-07-30T06:50:32.217Z,95814.97
2018-07-30T06:53:01.344Z,95815.50
2018-07-30T06:55:30.456Z,95820.99
2018-07-30T06:57:59.588Z,95812.63
2018-07-30T07:00:28.803Z,95814.83
2018-07-30T07:02:57.942Z,95828.98
2018-07-30T07:05:27.038Z,95824.07
2018-07-30T07:07:56.305Z,95824.67
2018-07-30T07:10:25.461Z,95825.81
2018-07-30T07:12:55.018Z,95824.64
2018-07-30T07:15:24.222Z,95823.99
2018-07-30T07:17:53.300Z,95830.97
2018-07-30T07:20:22.413Z,95828.92
2018-07-30T07:22:51.764Z,95825.88
2018-07-30T07:25:21.014Z,95813.45
2018-07-30T07:27:50.429Z,95822.30
2018-07-30T07:30:19.482Z,95822.30
2018-07-30T07:32:48.615Z,95827.32
2018-07-30T07:35:17.706Z,95822.03
2018-07-30T07:37:46.911Z,95822.04
2018-07-30T07:40:16.186Z,95821.45
2018-07-30T07:42:45.252Z,95820.33
2018-07-30T07:45:14.420Z,95819.78
2018-07-30T07:47:43.565Z,95815.67
2018-07-30T07:50:12.845Z,95815.87
2018-07-30T07:52:41.861Z,95814.92
2018-07-30T07:55:10.944Z,95819.03
2018-07-30T07:57:40.037Z,95811.56
2018-07-30T08:00:10.941Z,95820.17
2018-07-30T08:02:40.161Z,95819.78
2018-07-30T08:05:09.529Z,95819.23
2018-07-30T08:07:38.657Z,95820.95
2018-07-30T08:10:08.553Z,95820.33
2018-07-30T08:12:37.901Z,95816.78
2018-07-30T08:15:08.056Z,95820.33
2018-07-30T08:17:37.277Z,95820.44
2018-07-30T08:20:07.281Z,95826.55
2018-07-30T08:22:36.586Z,95822.94
2018-07-30T08:25:08.461Z,95823.66
2018-07-30T08:27:37.631Z,95829.47
2018-07-30T08:30:07.761Z,95827.76
2018-07-30T08:32:37.291Z,95825.73
2018-07-30T08:35:07.269Z,95821.30
2018-07-30T08:37:36.356Z,95818.70
2018-07-30T08:40:06.595Z,95815.64
2018-07-30T08:42:35.892Z,95820.77
2018-07-30T08:45:06.213Z,95824.67
2018-07-30T08:47:35.461Z,95825.02
2018-07-30T08:50:04.877Z,95826.23
2018-07-30T08:52:34.258Z,95825.89
2018-07-30T08:55:03.415Z,95823.73
2018-07-30T08:57:32.480Z,95828.44
2018-07-30T09:00:01.669Z,95827.38
2018-07-30T09:02:31.110Z,95825.34
2018-07-30T09:05:00.297Z,95826.16
2018-07-30T09:07:29.512Z,95819.23
2018-07-30T09:09:58.660Z,95825.75
2018-07-30T09:12:27.772Z,95820.52
2018-07-30T09:14:56.896Z,95820.61
2018-07-30T09:17:26.065Z,95814.98
2018-07-30T09:19:55.229Z,95815.75
2018-07-30T09:22:24.380Z,95812.39
2018-07-30T09:24:53.596Z,95809.37
2018-07-30T09:27:22.708Z,95812.85
2018-07-30T09:29:51.925Z,95814.19
2018-07-30T09:32:21.012Z,95813.17
2018-07-30T09:34:50.822Z,95814.19
2018-07-30T09:37:19.948Z,95814.36
2018-07-30T09:39:49.044Z,95817.23
2018-07-30T09:42:18.141Z,95817.48
2018-07-30T09:44:47.604Z,95810.88
2018-07-30T09:47:16.823Z,95813.38
2018-07-30T09:49:45.968Z,95811.91
2018-07-30T09:52:15.052Z,95805.73
2018-07-30T09:54:44.271Z,95807.30
2018-07-30T09:57:13.537Z,95813.34
2018-07-30T09:59:42.713Z,95805.23
2018-07-30T10:02:11.949Z,95812.88
2018-07-30T10:04:43.768Z,95807.95
2018-07-30T10:07:13.886Z,95805.67
2018-07-30T10:09:43.078Z,95806.12
2018-07-30T10:12:12.201Z,95805.64
2018-07-30T10:14:41.399Z,95803.41
2018-07-30T10:17:10.512Z,95804.91
2018-07-30T10:19:39.690Z,95803.70
2018-07-30T10:22:08.922Z,95811.47
2018-07-30T10:24:38.024Z,95804.86
2018-07-30T10:27:07.291Z,95807.46
2018-07-30T10:29:36.379Z,95803.29
2018-07-30T10:32:05.849Z,95805.50
2018-07-30T10:34:35.073Z,95806.27
2018-07-30T10:37:04.110Z,95804.30
2018-07-30T10:39:33.260Z,95800.63
2018-07-30T10:42:02.411Z,95802.13
2018-07-30T10:44:31.652Z,95796.05
2018-07-30T10:47:00.797Z,95793.12
2018-07-30T10:49:30.358Z,95786.05
2018-07-30T10:51:59.479Z,95795.28
2018-07-30T10:54:28.745Z,95802.69
2018-07-30T10:56:57.941Z,95794.23
2018-07-30T10:59:27.157Z,95793.81
2018-07-30T11:01:56.257Z,95793.91
2018-07-30T11:04:25.559Z,95794.22
2018-07-30T11:06:54.736Z,95791.41
2018-07-30T11:09:26.702Z,95791.18
2018-07-30T11:11:53.073Z,95784.33
2018-07-30T11:14:22.239Z,95790.31
2018-07-30T11:16:51.437Z,95784.55
2018-07-30T11:19:20.702Z,95788.94
2018-07-30T11:21:49.842Z,95790.52
2018-07-30T11:24:19.128Z,95787.83
2018-07-30T11:26:48.224Z,95779.23
2018-07-30T11:29:17.378Z,95772.99
2018-07-30T11:31:46.414Z,95777.15
2018-07-30T11:34:15.626Z,95783.52
2018-07-30T11:36:44.806Z,95785.70
2018-07-30T11:39:14.234Z,95778.22
2018-07-30T11:41:43.430Z,95775.17
2018-07-30T11:44:12.649Z,95773.16
2018-07-30T11:46:41.927Z,95769.07
2018-07-30T11:49:11.142Z,95765.98
2018-07-30T11:51:40.378Z,95765.86
2018-07-30T11:54:09.641Z,95768.36
2018-07-30T11:56:38.700Z,95769.19
2018-07-30T11:59:07.848Z,95769.79
2018-07-30T12:01:37.007Z,95770.98
2018-07-30T12:04:06.846Z,95766.55
2018-07-30T12:06:36.003Z,95763.42
2018-07-30T12:09:06.549Z,95753.72
2018-07-30T12:11:35.852Z,95764.15
2018-07-30T12:14:04.986Z,95771.33
2018-07-30T12:16:34.198Z,95765.09
2018-07-30T12:19:03.848Z,95764.23
2018-07-30T12:21:32.933Z,95762.80
2018-07-30T12:24:02.069Z,95757.78
2018-07-30T12:26:31.255Z,95765.59
2018-07-30T12:29:00.295Z,95760.41
2018-07-30T12:31:29.574Z,95760.29
2018-07-30T12:33:58.720Z,95757.41
2018-07-30T12:36:28.054Z,95757.66
2018-07-30T12:38:57.136Z,95755.42
2018-07-30T12:41:26.309Z,95752.02
2018-07-30T12:43:55.509Z,95751.97
2018-07-30T12:46:24.677Z,95752.87
2018-07-30T12:48:53.798Z,95760.68
2018-07-30T12:51:22.899Z,95760.10
2018-07-30T12:53:52.077Z,95757.17
2018-07-30T12:56:21.382Z,95750.94
2018-07-30T12:58:50.480Z,95752.88
2018-07-30T13:01:19.674Z,95749.50
2018-07-30T13:03:48.768Z,95755.33
2018-07-30T13:06:17.980Z,95746.48
2018-07-30T13:08:47.096Z,95745.34
2018-07-30T13:11:16.882Z,95746.02
2018-07-30T13:13:46.137Z,95740.30
2018-07-30T13:16:15.335Z,95739.81
2018-07-30T13:18:44.486Z,95743.92
2018-07-30T13:21:13.770Z,95740.74
2018-07-30T13:23:42.898Z,95733.60
2018-07-30T13:26:12.148Z,95729.01
2018-07-30T13:28:41.292Z,95731.52
2018-07-30T13:31:10.474Z,95733.45
2018-07-30T13:33:39.628Z,95727.27
2018-07-30T13:36:08.845Z,95721.83
2018-07-30T13:38:38.883Z,95721.02
2018-07-30T13:41:08.151Z,95712.30
2018-07-30T13:43:37.220Z,95707.60
2018-07-30T13:46:06.405Z,95713.58
2018-07-30T13:48:35.561Z,95714.83
2018-07-30T13:51:04.696Z,95721.95
2018-07-30T13:53:33.912Z,95708.56
2018-07-30T13:56:03.089Z,95705.72
2018-07-30T13:58:32.155Z,95709.53
2018-07-30T14:01:01.416Z,95709.59
2018-07-30T14:03:30.612Z,95702.97
2018-07-30T14:05:59.741Z,95705.69
2018-07-30T14:08:28.853Z,95706.58
2018-07-30T14:10:58.089Z,95703.98
2018-07-30T14:13:27.187Z,95705.19
2018-07-30T14:15:56.317Z,95703.00
2018-07-30T14:18:25.598Z,95709.09
2018-07-30T14:20:54.913Z,95704.58
2018-07-30T14:23:24.035Z,95705.72
2018-07-30T14:25:53.315Z,95701.91
2018-07-30T14:28:22.469Z,95710.23
2018-07-30T14:30:51.493Z,95709.92
2018-07-30T14:33:20.734Z,95704.40
2018-07-30T14:35:49.869Z,95701.33
2018-07-30T14:38:19.148Z,95704.13
2018-07-30T14:40:48.199Z,95703.83
2018-07-30T14:43:17.349Z,95695.54
2018-07-30T14:45:46.652Z,95697.31
2018-07-30T14:48:15.816Z,95697.89
2018-07-30T14:50:44.988Z,95701.52
2018-07-30T14:53:14.339Z,95688.03
2018-07-30T14:55:43.658Z,95684.70
2018-07-30T14:58:12.909Z,95682.86
2018-07-30T15:00:42.005Z,95682.72
2018-07-30T15:03:11.186Z,95677.28
2018-07-30T15:05:40.344Z,95679.22
2018-07-30T15:08:09.420Z,95675.45
2018-07-30T15:10:38.540Z,95669.95
2018-07-30T15:13:07.682Z,95669.38
2018-07-30T15:15:36.920Z,95675.02
2018-07-30T15:18:06.043Z,95667.67
2018-07-30T15:20:35.263Z,95672.75
2018-07-30T15:23:04.463Z,95675.17
2018-07-30T15:25:33.752Z,95670.34
2018-07-30T15:28:02.886Z,95670.56
2018-07-30T15:30:32.578Z,95668.61
2018-07-30T15:33:01.734Z,95669.30
2018-07-30T15:35:30.975Z,95670.91
2018-07-30T15:38:00.150Z,95671.08
2018-07-30T15:40:30.286Z,95671.63
2018-07-30T15:42:59.427Z,95671.42
2018-07-30T15:45:28.590Z,95671.73
2018-07-30T15:47:58.415Z,95663.11
2018-07-30T15:50:27.485Z,95658.83
2018-07-30T15:52:56.773Z,95657.36
2018-07-30T15:55:26.165Z,95660.08
2018-07-30T15:57:55.347Z,95657.88
2018-07-30T16:00:24.965Z,95654.80
2018-07-30T16:02:54.269Z,95660.88
2018-07-30T16:05:23.386Z,95659.35
2018-07-30T16:07:52.565Z,95660.34
2018-07-30T16:10:21.761Z,95660.50
2018-07-30T16:12:50.859Z,95659.59
2018-07-30T16:15:20.195Z,95659.14
2018-07-30T16:17:49.363Z,95653.03
2018-07-30T16:20:18.444Z,95652.52
2018-07-30T16:22:47.550Z,95653.44
2018-07-30T16:25:16.771Z,95652.76
2018-07-30T16:27:45.870Z,95652.20
2018-07-30T16:30:15.052Z,95651.39
2018-07-30T16:32:44.244Z,95656.19
2018-07-30T16:35:13.722Z,95656.30
2018-07-30T16:37:42.832Z,95649.84
2018-07-30T16:40:12.236Z,95652.39
2018-07-30T16:42:41.325Z,95656.37
2018-07-30T16:45:10.944Z,95649.47
2018-07-30T16:47:40.050Z,95647.61
2018-07-30T16:50:10.150Z,95648.21
2018-07-30T16:52:39.460Z,95651.36
2018-07-30T16:55:08.708Z,95656.91
2018-07-30T16:57:38.010Z,95648.20
2018-07-30T17:00:09.490Z,95654.73
2018-07-30T17:02:38.587Z,95657.11
2018-07-30T17:05:08.041Z,95653.28
2018-07-30T17:07:37.333Z,95648.45
2018-07-30T17:10:06.804Z,95653.31
2018-07-30T17:12:36.081Z,95650.63
2018-07-30T17:15:05.625Z,95655.34
2018-07-30T17:17:34.769Z,95655.50
2018-07-30T17:20:04.978Z,95649.83
2018-07-30T17:22:34.015Z,95641.92
2018-07-30T17:25:03.222Z,95648.00
2018-07-30T17:27:32.495Z,95647.98
2018-07-30T17:30:01.622Z,95646.90
2018-07-30T17:32:30.861Z,95649.37
2018-07-30T17:35:00.309Z,95649.91
2018-07-30T17:37:29.637Z,95641.95
2018-07-30T17:39:58.901Z,95648.36
2018-07-30T17:42:28.163Z,95654.20
2018-07-30T17:44:57.532Z,95651.42
2018-07-30T17:47:27.031Z,95655.47
2018-07-30T17:49:56.197Z,95651.91
2018-07-30T17:52:26.408Z,95653.88
2018-07-30T17:54:55.489Z,95653.91
2018-07-30T17:57:24.625Z,95662.53
2018-07-30T17:59:53.867Z,95658.22
2018-07-30T18:02:23.075Z,95662.28
2018-07-30T18:04:52.265Z,95673.19
2018-07-30T18:07:21.409Z,95666.44
2018-07-30T18:09:50.657Z,95674.34
2018-07-30T18:12:19.765Z,95674.05
2018-07-30T18:14:48.929Z,95677.63
2018-07-30T18:17:18.189Z,95677.09
2018-07-30T18:19:48.265Z,95684.52
2018-07-30T18:22:17.441Z,95686.34
2018-07-30T18:24:46.557Z,95680.60
2018-07-30T18:27:16.069Z,95681.29
2018-07-30T18:29:45.239Z,95678.34
2018-07-30T18:32:14.284Z,95689.63
2018-07-30T18:34:43.484Z,95686.45
2018-07-30T18:37:12.821Z,95692.70
2018-07-30T18:39:42.236Z,95690.52
2018-07-30T18:42:11.439Z,95688.52
2018-07-30T18:44:41.135Z,95698.34
2018-07-30T18:47:10.231Z,95700.14
2018-07-30T18:49:39.427Z,95698.33
2018-07-30T18:52:08.717Z,95695.94
2018-07-30T18:54:37.888Z,95692.91
2018-07-30T18:57:07.004Z,95694.10
2018-07-30T18:59:36.262Z,95704.54
2018-07-30T19:02:05.402Z,95709.91
2018-07-30T19:04:34.754Z,95704.88
2018-07-30T19:07:03.859Z,95707.63
2018-07-30T19:09:33.012Z,95711.23
2018-07-30T19:12:02.209Z,95708.78
2018-07-30T19:14:31.398Z,95708.06
2018-07-30T19:17:00.588Z,95711.24
2018-07-30T19:19:29.820Z,95717.80
2018-07-30T19:21:58.914Z,95715.50
2018-07-30T19:24:28.138Z,95724.49
2018-07-30T19:26:57.268Z,95725.40
2018-07-30T19:29:26.522Z,95724.76
2018-07-30T19:31:55.670Z,95721.96
2018-07-30T19:34:24.798Z,95727.45
2018-07-30T19:36:53.857Z,95734.16
2018-07-30T19:39:23.000Z,95732.17
2018-07-30T19:41:52.186Z,95742.94
2018-07-30T19:44:21.349Z,95736.07
2018-07-30T19:46:50.539Z,95735.98
2018-07-30T19:49:19.721Z,95740.33
2018-07-30T19:51:48.913Z,95742.45
2018-07-30T19:54:18.093Z,95745.80
2018-07-30T19:56:47.340Z,95745.98
2018-07-30T19:59:16.436Z,95746.69
2018-07-30T20:01:45.669Z,95743.39
2018-07-30T20:04:14.877Z,95737.09
2018-07-30T20:06:44.235Z,95735.36
2018-07-30T20:09:13.341Z,95737.64
2018-07-30T20:11:42.531Z,95735.50
2018-07-30T20:14:11.729Z,95735.47
2018-07-30T20:16:40.812Z,95737.73
2018-07-30T20:19:10.041Z,95740.20
2018-07-30T20:21:39.223Z,95736.26
2018-07-30T20:24:08.317Z,95737.47
2018-07-30T20:26:37.504Z,95736.44
2018-07-30T20:29:09.628Z,95737.04
2018-07-30T20:31:38.963Z,95740.37
2018-07-30T20:34:08.073Z,95753.48
2018-07-30T20:36:37.251Z,95744.11
2018-07-30T20:39:09.037Z,95750.02
2018-07-30T20:41:38.167Z,95755.19
2018-07-30T20:44:07.333Z,95749.25
2018-07-30T20:46:36.517Z,95751.59
2018-07-30T20:49:05.985Z,95752.66
2018-07-30T20:51:35.212Z,95755.13
2018-07-30T20:54:04.315Z,95762.16
2018-07-30T20:56:33.613Z,95766.15
2018-07-30T20:59:02.808Z,95765.66
2018-07-30T21:01:32.131Z,95766.21
2018-07-30T21:04:01.279Z,95764.09
2018-07-30T21:06:30.480Z,95764.77
2018-07-30T21:08:59.633Z,95762.73
2018-07-30T21:11:28.848Z,95760.47
2018-07-30T21:13:57.940Z,95766.55
2018-07-30T21:16:27.029Z,95759.42
2018-07-30T21:18:56.245Z,95755.69
2018-07-30T21:21:25.464Z,95761.44
2018-07-30T21:23:54.712Z,95760.28
2018-07-30T21:26:23.848Z,95763.98
2018-07-30T21:28:53.116Z,95758.52
2018-07-30T21:31:22.376Z,95759.98
2018-07-30T21:33:51.651Z,95762.75
2018-07-30T21:36:20.883Z,95768.65
2018-07-30T21:38:50.001Z,95756.27
2018-07-30T21:41:19.157Z,95763.16
2018-07-30T21:43:48.494Z,95764.82
2018-07-30T21:46:17.605Z,95758.47
2018-07-30T21:48:46.745Z,95761.06
2018-07-30T21:51:15.887Z,95760.52
2018-07-30T21:53:45.062Z,95763.72
2018-07-30T21:59:14.166Z,95758.09
2018-07-30T22:01:43.428Z,95763.22
2018-07-30T22:04:12.545Z,95761.69
2018-07-30T22:06:41.669Z,95763.27
2018-07-30T22:09:11.164Z,95768.66
2018-07-30T22:11:40.358Z,95765.87
2018-07-30T22:14:09.587Z,95766.67
2018-07-30T22:16:38.660Z,95762.85
2018-07-30T22:19:07.886Z,95767.91
2018-07-30T22:21:37.555Z,95763.37
2018-07-30T22:24:07.114Z,95761.03
2018-07-30T22:26:36.238Z,95766.88
2018-07-30T22:29:05.370Z,95762.25
2018-07-30T22:31:34.522Z,95759.73
2018-07-30T22:34:03.790Z,95758.13
2018-07-30T22:36:32.978Z,95771.54
2018-07-30T22:39:02.135Z,95766.94
2018-07-30T22:41:31.216Z,95766.47
2018-07-30T22:44:00.456Z,95767.70
2018-07-30T22:46:29.544Z,95768.29
2018-07-30T22:48:59.385Z,95771.31
2018-07-30T22:51:28.780Z,95767.28
2018-07-30T22:53:58.475Z,95767.94
2018-07-30T22:56:28.909Z,95769.21
2018-07-30T22:58:58.317Z,95772.83
2018-07-30T23:01:27.473Z,95771.39
2018-07-30T23:03:59.127Z,95773.08
2018-07-30T23:06:30.301Z,95776.72
2018-07-30T23:09:00.496Z,95772.11
2018-07-30T23:11:30.512Z,95771.06
2018-07-30T23:13:59.789Z,95774.51
2018-07-30T23:16:29.878Z,95778.27
2018-07-30T23:18:59.329Z,95775.33
2018-07-30T23:21:29.569Z,95771.54
2018-07-30T23:23:58.755Z,95765.16
2018-07-30T23:26:27.957Z,95770.42
2018-07-30T23:28:57.407Z,95766.59
2018-07-30T23:31:26.609Z,95765.42
2018-07-30T23:33:55.887Z,95765.95
2018-07-30T23:36:26.762Z,95760.31
2018-07-30T23:38:56.129Z,95765.17
2018-07-30T23:41:25.568Z,95766.77
2018-07-30T23:43:54.657Z,95764.41
2018-07-30T23:46:24.207Z,95763.83
2018-07-30T23:48:53.401Z,95765.55
2018-07-30T23:51:23.237Z,95766.96
2018-07-30T23:53:52.500Z,95754.73
2018-07-30T23:56:23.800Z,95761.70
2018-07-30T23:58:53.227Z,95757.72
